Terminal Aerodrome Forecast
Issued by NWS

Home | Current Version | Previous Version | Text Only | Print | Product List | Glossary On
Versions: 1 2 3 4 5 6 7 8 9 10 11 12 13 14 15
000
FTUS42 TJSJ 212200 AAB
TAFNCM
TAF AMD
TNCM 212222Z 2122/2218 06011KT P6SM VCSH FEW015 BKN025
      TEMPO 2122/2123 5SM TSRA FEW014CB BKN020
     FM220200 06015G25KT P6SM VCTS SCT020CB
     FM220800 09015G30KT P6SM VCTS SCT020CB BKN040 OVC050=

USA.gov is the U.S. government's official web portal to all federal, state and local government web resources and services.